Time;durP1;ratioP1;P1;durP2;ratioP2;P2;SDS_P1;SDS_P2;PMS_P1;PMS_P2;Temp;Humidity;BMP_temperature;BMP_pressure;BME280_temperature;BME280_humidity;BME280_pressure;Samples;Min_cycle;Max_cycle;Signal;HPM_P1;HPM_P2
2021/10/06 00:01:07;;;;;;;5.90;4.10;;;;;;;6.75;65.84;100168.08;112451;1190;60800;-22
2021/10/06 00:03:36;;;;;;;6.80;4.30;;;;;;;6.58;66.25;100164.22;112502;1183;61431;-22
2021/10/06 00:06:05;;;;;;;7.80;3.90;;;;;;;6.42;66.63;100157.36;112485;1190;75224;-23
2021/10/06 00:08:33;;;;;;;7.40;4.90;;;;;;;6.27;66.99;100153.38;112461;1190;74722;-22
2021/10/06 00:11:10;;;;;;;13.80;5.00;;;;;;;6.14;67.47;100152.77;112398;1191;72927;-22
2021/10/06 00:13:39;;;;;;;6.10;3.70;;;;;;;6.06;67.76;100153.27;112508;1190;61521;-24
2021/10/06 00:16:10;;;;;;;9.70;3.90;;;;;;;6.62;67.34;100153.99;112460;1192;60826;-22
2021/10/06 00:18:39;;;;;;;8.40;4.80;;;;;;;7.19;65.36;100160.08;112484;1190;75018;-22
2021/10/06 00:21:07;;;;;;;7.00;4.60;;;;;;;7.25;64.76;100157.87;112544;1190;76043;-22
2021/10/06 00:23:36;;;;;;;7.60;4.20;;;;;;;7.10;65.03;100156.54;112479;1190;74053;-22
2021/10/06 00:26:04;;;;;;;8.80;5.10;;;;;;;6.89;65.28;100157.71;112377;1192;60805;-22
2021/10/06 00:28:33;;;;;;;7.90;5.10;;;;;;;6.69;65.69;100157.12;112286;1178;61473;-22
2021/10/06 00:31:01;;;;;;;6.90;4.30;;;;;;;6.50;66.00;100157.17;112475;1190;75235;-22
2021/10/06 00:33:30;;;;;;;8.40;4.40;;;;;;;6.32;66.46;100157.12;112518;1191;75541;-22
2021/10/06 00:35:58;;;;;;;9.40;4.70;;;;;;;6.15;66.89;100155.98;112284;1192;73068;-22
2021/10/06 00:38:27;;;;;;;8.20;4.60;;;;;;;6.00;67.44;100157.00;112279;1190;60835;-22
2021/10/06 00:40:55;;;;;;;5.90;3.20;;;;;;;5.89;67.97;100154.72;112552;1190;60793;-22
2021/10/06 00:43:24;;;;;;;5.80;3.20;;;;;;;6.38;67.67;100155.77;112477;1192;75204;-22
2021/10/06 00:45:52;;;;;;;6.80;3.30;;;;;;;7.01;65.86;100159.23;112437;1190;76108;-22
2021/10/06 00:48:21;;;;;;;6.40;4.40;;;;;;;7.10;65.27;100166.89;112445;1190;74005;-22
2021/10/06 00:50:49;;;;;;;9.50;4.80;;;;;;;6.94;65.17;100167.33;112487;1191;60816;-22
2021/10/06 00:53:17;;;;;;;7.50;4.20;;;;;;;6.71;65.48;100164.48;112363;1191;60822;-22
2021/10/06 00:55:46;;;;;;;8.20;4.30;;;;;;;6.48;66.03;100160.00;112471;1191;73814;-22
2021/10/06 00:58:14;;;;;;;5.20;3.80;;;;;;;6.28;66.41;100161.45;112466;1178;75629;-22
2021/10/06 01:00:42;;;;;;;6.20;4.10;;;;;;;6.09;67.17;100160.92;112244;1192;72796;-22
2021/10/06 01:03:11;;;;;;;7.00;4.20;;;;;;;5.93;67.27;100164.69;112294;1191;60790;-22
2021/10/06 01:05:40;;;;;;;6.30;4.00;;;;;;;5.79;67.83;100164.78;112459;1192;60902;-22
2021/10/06 01:08:08;;;;;;;4.10;2.70;;;;;;;5.69;68.42;100160.04;112444;1191;74451;-22
2021/10/06 01:10:38;;;;;;;4.50;3.00;;;;;;;6.21;67.90;100169.49;112470;1190;75640;-22
2021/10/06 01:13:07;;;;;;;9.30;4.20;;;;;;;6.79;66.13;100169.26;112371;1192;74250;-22
2021/10/06 01:15:36;;;;;;;5.30;3.60;;;;;;;6.89;65.46;100169.84;112439;1192;60798;-22
2021/10/06 01:18:05;;;;;;;9.80;3.90;;;;;;;6.73;65.49;100164.70;112232;1190;60803;-22
2021/10/06 01:20:33;;;;;;;4.90;3.70;;;;;;;6.53;65.66;100163.42;112417;1190;74375;-22
2021/10/06 01:23:02;;;;;;;7.50;3.50;;;;;;;6.30;66.05;100162.52;112483;1190;74684;-22
2021/10/06 01:25:30;;;;;;;7.80;3.60;;;;;;;6.10;66.66;100166.21;112444;1190;74078;-22
2021/10/06 01:27:58;;;;;;;7.10;3.70;;;;;;;5.93;67.17;100165.89;112437;1191;60819;-23
2021/10/06 01:30:27;;;;;;;10.80;4.00;;;;;;;5.77;67.62;100160.56;112560;1190;60821;-23
2021/10/06 01:32:55;;;;;;;5.70;3.80;;;;;;;5.62;68.33;100163.61;112489;1190;75190;-22
2021/10/06 01:35:24;;;;;;;5.10;2.90;;;;;;;5.54;68.47;100162.21;112495;1190;75779;-22
2021/10/06 01:37:53;;;;;;;5.70;3.10;;;;;;;6.09;68.08;100163.27;112500;1191;72807;-22
2021/10/06 01:40:25;;;;;;;5.20;3.50;;;;;;;6.75;66.28;100164.80;112483;1190;61477;-22
2021/10/06 01:42:53;;;;;;;6.20;3.90;;;;;;;6.87;65.34;100167.66;112255;1192;61394;-22
2021/10/06 01:45:25;;;;;;;7.20;3.90;;;;;;;6.73;65.50;100164.02;112323;1192;72486;-22
2021/10/06 01:47:53;;;;;;;7.60;4.40;;;;;;;6.51;65.59;100164.17;112462;1191;75693;-22
2021/10/06 01:50:24;;;;;;;7.30;3.90;;;;;;;6.30;66.31;100160.14;112441;1192;73976;-22
2021/10/06 01:52:53;;;;;;;6.80;3.90;;;;;;;6.09;66.75;100157.63;112196;1184;62045;-22
2021/10/06 01:55:26;;;;;;;6.10;3.50;;;;;;;5.91;67.16;100165.30;112283;1192;62080;-22
2021/10/06 01:57:56;;;;;;;9.60;3.90;;;;;;;5.75;67.56;100159.63;112257;1192;73743;-22
2021/10/06 02:00:24;;;;;;;6.10;3.70;;;;;;;5.60;68.28;100161.98;112401;1191;75933;-25
2021/10/06 02:02:53;;;;;;;5.30;3.60;;;;;;;5.49;68.60;100163.30;112488;1190;72542;-23
2021/10/06 02:05:22;;;;;;;10.80;5.80;;;;;;;6.03;68.31;100165.45;112424;1190;60886;-23
2021/10/06 02:07:51;;;;;;;7.70;4.70;;;;;;;6.66;66.32;100162.27;112483;1190;60835;-23
2021/10/06 02:10:19;;;;;;;6.40;4.00;;;;;;;6.74;65.67;100162.05;112489;1190;74209;-23
2021/10/06 02:12:49;;;;;;;11.50;3.60;;;;;;;6.57;65.93;100160.26;112397;1190;74717;-22
2021/10/06 02:15:18;;;;;;;5.80;4.00;;;;;;;6.37;66.16;100161.37;112458;1190;72902;-22
2021/10/06 02:17:46;;;;;;;8.20;4.30;;;;;;;6.14;66.87;100164.63;112387;1191;60800;-20
2021/10/06 02:20:15;;;;;;;6.30;3.70;;;;;;;5.94;67.43;100167.41;112550;1190;60826;-21
2021/10/06 02:22:43;;;;;;;7.80;4.30;;;;;;;5.73;68.03;100164.19;112276;1191;74142;-23
2021/10/06 02:25:12;;;;;;;6.60;4.20;;;;;;;5.54;68.51;100161.88;112457;1190;74610;-23
2021/10/06 02:27:41;;;;;;;4.40;2.80;;;;;;;5.43;68.80;100164.58;112499;1190;74125;-24
2021/10/06 02:30:10;;;;;;;5.50;3.70;;;;;;;5.91;68.75;100164.77;112359;1191;60864;-23
2021/10/06 02:32:39;;;;;;;6.20;3.60;;;;;;;6.49;66.82;100161.33;112364;1190;60815;-25
2021/10/06 02:35:08;;;;;;;8.90;4.60;;;;;;;6.59;66.12;100160.86;112416;1190;73174;-23
2021/10/06 02:37:37;;;;;;;7.60;3.20;;;;;;;6.43;66.31;100164.70;112313;1192;74715;-25
2021/10/06 02:40:07;;;;;;;7.90;4.40;;;;;;;6.20;66.96;100166.77;112429;1191;74353;-23
2021/10/06 02:42:36;;;;;;;6.60;3.90;;;;;;;5.96;67.28;100169.39;112238;1190;60888;-23
2021/10/06 02:45:06;;;;;;;7.30;5.10;;;;;;;5.76;68.18;100167.00;112477;1190;61561;-25
2021/10/06 02:47:35;;;;;;;7.80;4.00;;;;;;;5.57;68.77;100168.64;112297;1184;75220;-27
2021/10/06 02:50:05;;;;;;;7.40;3.90;;;;;;;5.40;69.20;100169.16;112384;1190;74666;-25
2021/10/06 02:52:35;;;;;;;6.20;4.00;;;;;;;5.32;69.71;100169.15;112275;1190;72660;-25
2021/10/06 02:55:04;;;;;;;8.80;4.30;;;;;;;5.86;69.14;100176.72;112509;1191;60800;-23
2021/10/06 02:57:34;;;;;;;7.70;5.40;;;;;;;6.43;67.21;100169.86;112471;1191;60934;-23
2021/10/06 03:00:07;;;;;;;8.90;5.90;;;;;;;6.51;66.50;100169.73;112266;1192;75239;-23
2021/10/06 03:02:36;;;;;;;12.40;4.60;;;;;;;6.33;66.65;100167.39;112234;1192;74696;-23
2021/10/06 03:05:05;;;;;;;5.50;3.60;;;;;;;6.11;67.19;100172.91;112507;1190;73000;-23
2021/10/06 03:07:33;;;;;;;7.60;4.50;;;;;;;5.88;67.89;100175.41;112461;1192;61751;-23
2021/10/06 03:10:04;;;;;;;9.50;5.50;;;;;;;5.70;68.26;100176.00;112274;1192;60805;-23
2021/10/06 03:12:34;;;;;;;7.90;4.70;;;;;;;5.53;68.93;100176.55;112218;1193;75832;-22
2021/10/06 03:15:03;;;;;;;7.90;4.50;;;;;;;5.39;69.38;100178.19;112465;1191;75617;-23
2021/10/06 03:17:32;;;;;;;13.90;4.50;;;;;;;5.30;69.99;100179.96;112202;1193;74012;-23
2021/10/06 03:20:01;;;;;;;8.90;4.90;;;;;;;5.86;69.20;100185.67;112482;1192;60791;-23
2021/10/06 03:22:30;;;;;;;9.20;4.60;;;;;;;6.47;67.33;100186.27;112327;1191;60818;-23
2021/10/06 03:24:58;;;;;;;8.80;3.70;;;;;;;6.57;66.40;100186.84;112426;1193;75575;-23
2021/10/06 03:27:26;;;;;;;11.40;5.60;;;;;;;6.44;66.68;100184.52;112470;1192;72992;-23
2021/10/06 03:29:54;;;;;;;7.00;4.50;;;;;;;6.23;67.04;100190.42;112440;1192;74487;-22
2021/10/06 03:32:23;;;;;;;7.80;5.00;;;;;;;6.00;67.60;100189.23;112461;1191;60901;-22
2021/10/06 03:34:52;;;;;;;8.90;4.80;;;;;;;5.79;68.22;100191.32;112265;1191;60822;-22
2021/10/06 03:37:21;;;;;;;7.20;3.80;;;;;;;5.61;68.70;100193.29;112224;1192;75213;-22
2021/10/06 03:39:49;;;;;;;11.60;6.00;;;;;;;5.46;69.19;100193.38;112242;1193;75646;-22
2021/10/06 03:42:17;;;;;;;6.20;2.80;;;;;;;5.38;69.70;100191.63;112457;1192;73019;-22
2021/10/06 03:44:46;;;;;;;8.10;4.20;;;;;;;5.91;69.29;100197.19;112528;1193;60840;-22
2021/10/06 03:47:15;;;;;;;11.30;5.00;;;;;;;6.47;67.34;100199.20;112436;1192;60901;-22
2021/10/06 03:49:43;;;;;;;8.90;4.60;;;;;;;6.55;66.84;100202.64;112461;1192;74579;-22
2021/10/06 03:52:11;;;;;;;8.70;4.70;;;;;;;6.37;66.96;100201.02;112438;1192;75967;-23
2021/10/06 03:54:39;;;;;;;6.00;4.60;;;;;;;6.15;67.50;100205.14;112379;1193;72387;-23
2021/10/06 03:57:09;;;;;;;11.70;4.60;;;;;;;5.92;68.21;100202.14;112459;1192;60890;-24
2021/10/06 03:59:37;;;;;;;15.00;6.30;;;;;;;5.72;68.63;100203.48;112523;1192;61391;-21
2021/10/06 04:02:05;;;;;;;10.50;6.10;;;;;;;5.55;69.07;100201.46;112462;1193;74337;-23
2021/10/06 04:04:33;;;;;;;8.30;3.80;;;;;;;5.41;69.80;100197.58;112560;1192;75436;-22
2021/10/06 04:07:02;;;;;;;12.10;4.70;;;;;;;5.85;69.46;100200.89;112484;1190;73168;-23
2021/10/06 04:09:31;;;;;;;9.70;5.20;;;;;;;6.30;67.99;100206.85;112493;1190;60736;-22
2021/10/06 04:12:00;;;;;;;8.80;4.70;;;;;;;6.32;67.40;100212.83;112453;1192;60802;-22
2021/10/06 04:14:28;;;;;;;11.30;6.10;;;;;;;6.16;67.79;100214.89;112450;1190;74310;-22
2021/10/06 04:16:56;;;;;;;10.20;5.70;;;;;;;5.97;68.39;100214.00;112287;1191;74638;-22
2021/10/06 04:19:25;;;;;;;8.10;5.00;;;;;;;5.77;68.79;100216.73;112281;1190;73168;-22
2021/10/06 04:21:54;;;;;;;10.90;6.30;;;;;;;5.57;69.34;100213.08;112320;1193;60851;-22
2021/10/06 04:24:23;;;;;;;14.60;9.70;;;;;;;5.40;69.98;100211.88;112487;1190;60822;-22
2021/10/06 04:26:51;;;;;;;11.00;5.90;;;;;;;5.31;70.53;100207.45;112485;1190;74962;-22
2021/10/06 04:29:19;;;;;;;11.20;4.80;;;;;;;5.83;70.09;100205.63;112524;1190;75585;-22
2021/10/06 04:31:48;;;;;;;9.10;5.10;;;;;;;6.35;68.42;100210.29;112474;1190;72856;-22
2021/10/06 04:34:16;;;;;;;10.60;5.50;;;;;;;6.40;67.82;100206.42;112500;1191;60799;-22
2021/10/06 04:36:45;;;;;;;8.60;4.40;;;;;;;6.24;68.01;100202.98;112400;1192;61639;-22
2021/10/06 04:39:13;;;;;;;9.40;4.90;;;;;;;6.05;68.50;100203.16;112469;1190;73270;-22
2021/10/06 04:41:41;;;;;;;7.80;6.30;;;;;;;5.86;69.14;100201.52;112465;1190;74859;-22
2021/10/06 04:44:10;;;;;;;7.10;4.60;;;;;;;5.69;69.83;100198.48;112479;1190;73427;-22
2021/10/06 04:46:38;;;;;;;9.60;4.80;;;;;;;5.54;70.21;100202.52;112510;1190;60832;-23
2021/10/06 04:49:06;;;;;;;10.40;4.60;;;;;;;5.50;70.80;100201.30;112301;1190;60838;-22
2021/10/06 04:51:35;;;;;;;12.60;4.90;;;;;;;6.12;69.61;100204.91;112573;1190;74288;-22
2021/10/06 04:54:03;;;;;;;13.20;5.00;;;;;;;6.57;68.11;100205.66;112489;1190;75417;-22
2021/10/06 04:56:31;;;;;;;8.60;5.00;;;;;;;6.58;67.60;100204.92;112283;1193;73136;-22
2021/10/06 04:59:00;;;;;;;8.00;4.80;;;;;;;6.45;67.84;100203.09;112518;1190;60796;-22
2021/10/06 05:01:29;;;;;;;9.10;4.40;;;;;;;6.27;68.26;100203.23;112466;1192;60761;-23
2021/10/06 05:03:57;;;;;;;10.50;4.80;;;;;;;6.12;68.91;100206.14;112509;1190;73898;-22
2021/10/06 05:06:26;;;;;;;10.60;4.70;;;;;;;6.05;69.25;100211.27;112522;1190;75927;-23
2021/10/06 05:08:54;;;;;;;6.20;4.00;;;;;;;6.01;69.47;100214.34;112484;1190;73367;-23
2021/10/06 05:11:24;;;;;;;11.10;5.10;;;;;;;6.04;69.55;100213.02;112478;1190;62337;-23
2021/10/06 05:13:52;;;;;;;8.90;4.20;;;;;;;6.68;68.60;100213.05;112445;1190;60914;-23
2021/10/06 05:16:21;;;;;;;8.30;4.30;;;;;;;7.27;66.70;100214.59;112348;1192;73519;-23
2021/10/06 05:18:50;;;;;;;9.80;4.40;;;;;;;7.39;65.74;100218.90;112485;1184;74241;-22
2021/10/06 05:21:18;;;;;;;11.20;5.40;;;;;;;7.26;65.93;100215.16;112459;1190;73150;-22
2021/10/06 05:23:46;;;;;;;7.00;4.10;;;;;;;7.10;66.41;100216.45;112450;1190;60804;-22
2021/10/06 05:26:14;;;;;;;10.00;4.80;;;;;;;6.94;67.11;100219.45;112471;1190;61371;-22
2021/10/06 05:28:43;;;;;;;15.70;5.70;;;;;;;6.80;67.47;100218.92;112447;1190;74943;-22
2021/10/06 05:31:11;;;;;;;10.10;4.90;;;;;;;6.67;67.99;100220.88;112442;1190;74664;-22
2021/10/06 05:33:40;;;;;;;6.90;3.80;;;;;;;6.62;68.38;100223.90;112434;1190;73011;-22
2021/10/06 05:36:08;;;;;;;10.70;4.80;;;;;;;7.16;67.71;100224.80;112440;1190;60851;-22
2021/10/06 05:38:36;;;;;;;10.50;5.10;;;;;;;7.72;65.81;100225.34;112471;1190;60807;-22
2021/10/06 05:41:04;;;;;;;9.90;5.80;;;;;;;7.85;65.14;100231.63;112470;1190;74187;-22
2021/10/06 05:43:33;;;;;;;8.10;4.50;;;;;;;7.76;65.16;100229.10;112346;1192;74776;-22
2021/10/06 05:48:40;;;;;;;11.30;5.60;;;;;;;7.46;66.04;100229.39;110608;1209;599367;-22
2021/10/06 05:51:09;;;;;;;12.70;5.80;;;;;;;7.32;66.53;100227.52;112073;1196;60776;-25
2021/10/06 05:53:37;;;;;;;10.90;5.30;;;;;;;7.24;66.76;100229.27;112031;1196;60827;-23
2021/10/06 05:56:05;;;;;;;9.60;5.70;;;;;;;7.17;67.17;100239.25;112078;1196;73254;-24
2021/10/06 05:58:34;;;;;;;7.20;3.90;;;;;;;7.19;67.44;100237.45;112074;1197;75509;-23
2021/10/06 06:01:02;;;;;;;10.90;4.70;;;;;;;7.84;66.27;100239.77;112068;1181;74259;-23
2021/10/06 06:03:31;;;;;;;11.80;5.50;;;;;;;8.40;64.19;100244.31;112067;1196;60807;-24
2021/10/06 06:06:00;;;;;;;8.80;6.10;;;;;;;8.53;63.72;100247.86;112105;1196;60796;-24
2021/10/06 06:08:28;;;;;;;11.90;5.20;;;;;;;8.47;63.74;100250.21;112060;1196;73520;-24
2021/10/06 06:10:56;;;;;;;12.00;5.90;;;;;;;8.35;64.02;100254.47;112077;1196;75655;-24
2021/10/06 06:13:25;;;;;;;8.40;5.20;;;;;;;8.21;64.41;100258.46;112033;1196;73866;-23
2021/10/06 06:15:54;;;;;;;11.10;6.30;;;;;;;8.09;64.71;100260.29;112085;1195;61206;-23
2021/10/06 06:18:23;;;;;;;14.70;5.80;;;;;;;8.01;65.14;100262.45;111798;1196;60873;-23
2021/10/06 06:20:51;;;;;;;13.00;6.20;;;;;;;7.98;65.35;100260.51;112122;1196;73228;-23
2021/10/06 06:23:19;;;;;;;8.60;5.10;;;;;;;7.96;65.75;100261.63;111765;1196;74201;-23
2021/10/06 06:25:48;;;;;;;5.50;3.10;;;;;;;8.02;65.75;100261.52;112027;1196;72758;-23
2021/10/06 06:28:16;;;;;;;8.50;4.30;;;;;;;8.62;64.91;100265.31;112064;1196;60912;-23
2021/10/06 06:30:44;;;;;;;12.70;6.30;;;;;;;9.20;62.79;100264.08;112010;1196;60735;-24
2021/10/06 06:33:13;;;;;;;13.50;6.30;;;;;;;9.39;62.19;100270.84;112062;1196;73621;-22
2021/10/06 06:35:41;;;;;;;10.60;5.90;;;;;;;9.39;62.18;100268.58;111705;1196;75647;-21
2021/10/06 06:38:11;;;;;;;14.70;5.60;;;;;;;9.35;62.34;100271.40;112033;1195;73091;-21
2021/10/06 06:40:41;;;;;;;13.90;6.10;;;;;;;9.33;62.27;100273.59;111726;1196;60805;-21
2021/10/06 06:43:10;;;;;;;15.50;7.50;;;;;;;9.33;62.50;100268.58;111691;1196;60922;-22
2021/10/06 06:45:38;;;;;;;14.20;6.70;;;;;;;9.33;62.76;100268.20;111785;1196;71707;-22
2021/10/06 06:48:06;;;;;;;8.30;4.60;;;;;;;9.34;62.46;100272.27;111697;1196;74664;-22
2021/10/06 06:50:45;;;;;;;11.60;6.70;;;;;;;9.31;62.18;100267.97;112063;1195;74093;-22
2021/10/06 06:53:13;;;;;;;10.30;4.90;;;;;;;9.31;62.77;100268.14;111734;1196;60835;-21
2021/10/06 06:55:42;;;;;;;12.10;5.70;;;;;;;9.34;62.11;100265.73;112091;1195;60802;-21
2021/10/06 06:58:10;;;;;;;13.40;6.90;;;;;;;9.35;62.20;100269.15;111655;1196;73525;-22
2021/10/06 07:00:38;;;;;;;11.10;5.70;;;;;;;9.40;62.63;100268.19;111738;1196;75744;-22
2021/10/06 07:03:07;;;;;;;15.20;7.20;;;;;;;9.51;61.99;100269.44;111890;1197;73312;-21
2021/10/06 07:05:35;;;;;;;11.20;6.50;;;;;;;9.59;62.43;100270.04;111913;1196;60809;-22
2021/10/06 07:08:04;;;;;;;12.50;6.50;;;;;;;9.70;61.89;100267.84;111877;1195;60853;-22
2021/10/06 07:10:32;;;;;;;14.40;5.30;;;;;;;9.81;61.55;100269.30;111735;1195;74429;-22
2021/10/06 07:13:01;;;;;;;11.60;6.50;;;;;;;9.89;60.97;100269.84;111884;1195;75440;-22
2021/10/06 07:15:29;;;;;;;16.00;6.80;;;;;;;9.97;61.01;100271.83;111787;1196;74199;-22
2021/10/06 07:17:58;;;;;;;14.40;6.40;;;;;;;10.11;60.94;100273.59;111752;1196;61176;-22
2021/10/06 07:20:26;;;;;;;220.20;28.10;;;;;;;10.28;60.48;100274.30;111786;1196;60783;-21
2021/10/06 07:22:55;;;;;;;13.40;6.00;;;;;;;10.44;60.09;100279.81;111849;1196;74115;-22
2021/10/06 07:25:24;;;;;;;13.20;5.00;;;;;;;10.59;59.38;100278.77;111629;1196;75779;-22
2021/10/06 07:27:53;;;;;;;18.30;6.70;;;;;;;10.72;59.48;100280.05;111683;1196;70927;-22
2021/10/06 07:30:21;;;;;;;13.20;6.40;;;;;;;10.80;59.05;100277.79;111884;1196;62082;-22
2021/10/06 07:32:50;;;;;;;16.80;5.80;;;;;;;10.90;58.46;100280.29;111859;1195;60727;-21
2021/10/06 07:35:18;;;;;;;14.70;6.20;;;;;;;10.99;58.33;100284.75;112025;1180;73592;-22
2021/10/06 07:37:47;;;;;;;16.60;5.60;;;;;;;11.05;58.08;100286.47;112423;1193;75800;-22
2021/10/06 07:40:16;;;;;;;17.90;4.30;;;;;;;11.13;57.32;100278.98;112351;1194;73987;-21
2021/10/06 07:42:47;;;;;;;9.20;5.10;;;;;;;11.20;56.70;100280.46;112464;1192;60806;-21
2021/10/06 07:45:15;;;;;;;15.10;7.60;;;;;;;11.31;56.79;100282.40;112421;1192;60761;-22
2021/10/06 07:47:44;;;;;;;8.70;4.70;;;;;;;11.45;56.47;100277.83;112438;1193;72211;-22
2021/10/06 07:50:12;;;;;;;8.40;4.40;;;;;;;11.54;55.52;100282.63;112491;1193;74672;-22
2021/10/06 07:52:41;;;;;;;10.60;5.90;;;;;;;11.65;55.81;100285.40;112213;1193;73033;-22
2021/10/06 07:55:09;;;;;;;8.20;4.20;;;;;;;11.79;55.22;100283.59;112423;1192;60857;-22
2021/10/06 07:57:37;;;;;;;7.40;4.20;;;;;;;11.84;54.73;100282.23;112443;1192;60766;-22
2021/10/06 08:00:08;;;;;;;23.20;8.70;;;;;;;11.94;54.17;100278.43;112439;1193;74250;-22
2021/10/06 08:02:39;;;;;;;15.00;6.50;;;;;;;12.02;54.23;100280.17;112455;1193;73057;-22
2021/10/06 08:05:07;;;;;;;12.40;6.80;;;;;;;12.14;53.55;100280.41;112446;1193;72762;-22
2021/10/06 08:07:36;;;;;;;9.30;4.70;;;;;;;12.25;53.14;100277.43;112112;1193;60972;-22
2021/10/06 08:10:05;;;;;;;11.80;6.40;;;;;;;12.37;53.33;100277.77;112397;1192;61626;-22
2021/10/06 08:12:33;;;;;;;8.90;3.90;;;;;;;12.54;52.67;100278.91;112146;1193;74368;-21
2021/10/06 08:15:04;;;;;;;18.70;5.20;;;;;;;12.70;52.00;100274.81;112109;1193;77154;-22
2021/10/06 08:17:33;;;;;;;7.10;4.30;;;;;;;12.91;51.73;100276.61;112121;1193;73824;-22
2021/10/06 08:20:02;;;;;;;10.10;5.20;;;;;;;13.20;50.53;100274.43;112103;1193;60847;-23
2021/10/06 08:22:31;;;;;;;8.70;4.40;;;;;;;13.34;49.32;100271.80;112167;1193;60860;-23
2021/10/06 08:25:00;;;;;;;9.30;4.70;;;;;;;13.47;49.17;100270.50;112130;1193;75782;-24
2021/10/06 08:27:29;;;;;;;10.00;5.20;;;;;;;13.59;48.35;100279.48;112528;1190;75719;-23
2021/10/06 08:29:58;;;;;;;10.00;3.70;;;;;;;13.81;47.90;100280.79;112447;1193;73221;-21
2021/10/06 08:32:26;;;;;;;5.00;3.50;;;;;;;13.90;46.38;100280.07;112453;1190;60762;-22
2021/10/06 08:34:55;;;;;;;6.80;4.10;;;;;;;13.90;46.85;100283.75;112548;1190;60732;-22
2021/10/06 08:37:24;;;;;;;6.60;3.30;;;;;;;14.12;46.75;100284.52;112548;1190;73796;-22
2021/10/06 08:39:52;;;;;;;7.80;4.00;;;;;;;14.30;45.54;100279.70;112566;1190;74728;-22
2021/10/06 08:42:21;;;;;;;8.30;4.60;;;;;;;14.33;45.13;100283.79;112530;1190;73895;-22
2021/10/06 08:44:51;;;;;;;6.10;3.30;;;;;;;14.36;45.46;100276.39;112534;1193;60797;-22
2021/10/06 08:47:20;;;;;;;6.60;3.70;;;;;;;14.45;44.50;100273.46;112455;1192;61683;-22
2021/10/06 08:49:48;;;;;;;5.10;3.20;;;;;;;14.54;44.48;100271.16;112492;1193;72556;-22
2021/10/06 08:52:17;;;;;;;6.20;3.70;;;;;;;14.56;44.73;100266.33;112498;1192;74630;-22
2021/10/06 08:54:45;;;;;;;6.50;4.20;;;;;;;14.66;44.25;100271.11;112448;1192;73281;-22
2021/10/06 08:57:16;;;;;;;7.80;4.30;;;;;;;14.84;44.51;100274.30;112489;1192;60893;-22
2021/10/06 08:59:44;;;;;;;7.20;3.20;;;;;;;15.03;43.16;100279.05;112452;1192;60811;-22
2021/10/06 09:02:14;;;;;;;7.60;3.20;;;;;;;15.10;42.68;100276.06;112263;1192;71833;-22
2021/10/06 09:04:43;;;;;;;7.30;3.60;;;;;;;15.03;42.34;100269.45;112456;1193;74269;-22
2021/10/06 09:07:11;;;;;;;6.90;3.30;;;;;;;15.01;42.52;100275.34;112545;1192;74660;-23
2021/10/06 09:09:39;;;;;;;7.60;5.50;;;;;;;15.14;43.00;100275.20;112493;1193;60792;-22
2021/10/06 09:12:15;;;;;;;3.50;2.80;;;;;;;15.33;41.74;100264.90;112512;1190;61480;-22
2021/10/06 09:14:45;;;;;;;8.50;3.90;;;;;;;15.38;42.21;100271.33;112410;1192;74564;-22
2021/10/06 09:17:18;;;;;;;5.70;3.60;;;;;;;15.64;41.82;100278.49;112173;1192;75796;-22
2021/10/06 09:19:54;;;;;;;6.60;3.40;;;;;;;16.01;41.55;100279.84;112083;1192;74008;-22
2021/10/06 09:22:31;;;;;;;7.50;3.30;;;;;;;16.38;40.50;100285.75;112192;1192;61901;-22
2021/10/06 09:25:05;;;;;;;7.10;3.80;;;;;;;16.45;39.88;100277.66;112466;1192;60732;-23
2021/10/06 09:27:38;;;;;;;10.90;3.70;;;;;;;16.09;39.41;100277.88;112259;1192;74501;-22
2021/10/06 09:30:12;;;;;;;6.10;2.90;;;;;;;16.08;39.39;100272.20;112176;1192;75602;-22
2021/10/06 09:32:45;;;;;;;12.10;3.90;;;;;;;16.00;39.17;100270.76;112170;1192;71394;-22
2021/10/06 09:35:15;;;;;;;7.10;3.50;;;;;;;16.15;39.79;100275.49;112118;1193;60794;-22
2021/10/06 09:37:44;;;;;;;6.00;3.50;;;;;;;16.34;39.09;100286.33;112353;1192;60914;-22
2021/10/06 09:40:14;;;;;;;13.20;4.00;;;;;;;16.55;39.06;100285.73;112163;1192;74192;-22
2021/10/06 09:42:48;;;;;;;8.10;4.60;;;;;;;16.75;38.22;100290.82;112397;1192;75637;-23
2021/10/06 09:45:23;;;;;;;5.50;3.70;;;;;;;16.95;38.40;100283.64;112143;1193;72350;-22
2021/10/06 09:48:11;;;;;;;9.20;3.40;;;;;;;17.26;37.72;100285.64;112341;1192;61850;-23
2021/10/06 09:50:45;;;;;;;9.70;3.20;;;;;;;17.46;36.83;100283.58;112457;1190;62251;-22
2021/10/06 09:53:23;;;;;;;4.70;2.90;;;;;;;17.70;36.83;100290.29;112301;1192;73695;-22
2021/10/06 09:55:51;;;;;;;7.50;2.50;;;;;;;17.92;35.89;100282.17;112250;1192;75468;-22
2021/10/06 09:58:20;;;;;;;5.30;2.20;;;;;;;17.97;35.28;100282.20;112354;1190;73017;-22
2021/10/06 10:00:49;;;;;;;4.20;3.40;;;;;;;17.93;34.48;100277.88;112479;1190;60796;-22
2021/10/06 10:03:18;;;;;;;8.60;4.00;;;;;;;17.90;35.00;100283.34;112401;1190;60893;-22
2021/10/06 10:05:47;;;;;;;5.40;2.50;;;;;;;17.68;34.53;100272.07;112257;1191;75176;-22
2021/10/06 10:08:15;;;;;;;5.20;3.10;;;;;;;17.01;35.51;100279.81;112339;1190;75898;-22
2021/10/06 10:10:45;;;;;;;4.60;2.70;;;;;;;16.96;35.14;100277.25;112505;1190;71264;-22
2021/10/06 10:13:13;;;;;;;5.60;2.50;;;;;;;17.00;35.09;100281.83;112151;1193;60850;-22
2021/10/06 10:15:42;;;;;;;5.80;4.00;;;;;;;17.22;35.28;100273.73;112494;1192;60787;-22
2021/10/06 10:18:11;;;;;;;5.80;3.20;;;;;;;17.29;35.19;100276.27;112427;1192;75177;-22
2021/10/06 10:20:42;;;;;;;7.50;3.50;;;;;;;17.18;35.58;100275.66;112502;1190;75571;-22
2021/10/06 10:23:15;;;;;;;6.30;3.20;;;;;;;17.08;35.10;100275.71;112418;1190;74013;-22
2021/10/06 10:25:44;;;;;;;6.50;2.70;;;;;;;17.02;34.83;100273.74;112176;1193;60914;-22
2021/10/06 10:28:15;;;;;;;28.00;6.10;;;;;;;16.42;35.51;100270.89;112444;1190;60824;-22
2021/10/06 10:30:55;;;;;;;5.70;3.50;;;;;;;15.82;36.56;100260.69;112414;1190;75369;-22
2021/10/06 10:33:36;;;;;;;5.60;3.30;;;;;;;15.39;38.13;100257.05;112263;1192;75698;-22
2021/10/06 10:36:17;;;;;;;6.40;2.40;;;;;;;15.40;36.99;100255.27;112365;1177;73713;-22
2021/10/06 10:38:45;;;;;;;5.90;2.30;;;;;;;15.43;37.12;100253.99;112186;1190;61319;-22
2021/10/06 10:41:13;;;;;;;3.60;2.60;;;;;;;15.26;36.95;100257.45;112518;1190;61686;-22
2021/10/06 10:43:53;;;;;;;5.40;2.60;;;;;;;14.97;37.02;100259.43;112165;1193;74383;-22
2021/10/06 10:46:21;;;;;;;7.20;2.20;;;;;;;14.86;37.16;100265.50;112421;1190;74640;-23
2021/10/06 10:48:56;;;;;;;4.30;2.20;;;;;;;14.84;37.97;100261.31;112446;1191;71334;-22
2021/10/06 10:51:58;;;;;;;2.40;1.80;;;;;;;14.67;37.44;100257.40;112501;1189;61309;-22
2021/10/06 10:54:34;;;;;;;9.60;3.50;;;;;;;14.49;38.40;100265.50;112564;1190;60832;-22
2021/10/06 10:57:17;;;;;;;5.60;2.30;;;;;;;14.50;38.48;100266.26;112408;1190;75244;-22
2021/10/06 10:59:48;;;;;;;2.40;1.60;;;;;;;14.42;37.78;100260.95;112416;1190;74803;-22
2021/10/06 11:02:31;;;;;;;6.00;3.30;;;;;;;14.27;38.66;100262.91;112228;1192;74041;-22
2021/10/06 11:05:09;;;;;;;3.30;2.60;;;;;;;14.67;38.72;100260.02;112434;1192;60820;-20
2021/10/06 11:07:49;;;;;;;4.20;2.60;;;;;;;15.42;37.43;100259.31;112501;1192;60857;-22
2021/10/06 11:10:18;;;;;;;3.60;2.40;;;;;;;16.01;36.72;100259.00;112471;1190;74215;-22
2021/10/06 11:12:54;;;;;;;3.90;2.20;;;;;;;16.23;35.93;100257.11;112262;1190;74874;-22
2021/10/06 11:15:26;;;;;;;5.60;2.80;;;;;;;15.96;36.02;100259.39;112419;1191;74127;-22
2021/10/06 11:18:26;;;;;;;7.80;2.80;;;;;;;16.10;36.49;100257.67;112540;1190;60812;-22
2021/10/06 11:21:03;;;;;;;3.90;2.60;;;;;;;15.99;36.56;100255.30;112471;1192;61719;-22
2021/10/06 11:23:31;;;;;;;4.00;2.50;;;;;;;15.54;36.76;100253.91;112494;1192;75261;-22
2021/10/06 11:26:17;;;;;;;6.20;3.30;;;;;;;15.36;36.77;100252.59;112488;1190;75718;-22
2021/10/06 11:28:51;;;;;;;4.20;2.70;;;;;;;15.35;36.89;100251.66;112445;1192;74082;-22
2021/10/06 11:31:28;;;;;;;10.00;2.80;;;;;;;15.45;36.62;100254.11;112236;1192;61791;-22
2021/10/06 11:34:00;;;;;;;3.30;2.60;;;;;;;15.74;36.05;100244.96;112465;1192;60796;-22